Penkridge, United Kingdom
Current Conditions -  °F | °C
As of 4:50 PM on Monday 22 Dec 2014 (Local Time) from EGOS Reporting Station
Haze Haze  
Wind Chill: 52°   Ceiling: 2000
Heat Index: 52°   Visibility: 2.9mi
Dew Point: 48°   Wind: 26mph
Humidity: 88%   Direction: 240°WSW
Pressure: 29.88"   Gusts: NA
Location:  52.73°N, 2.12°W
Report Text: EGOS 221650Z AUTO 24023KT 4700 HZ BKN020/// 11/09 Q1012
Loading
Personal Weather Stations






























Interactive Weather Map New forecast layout! Learn more

10-Day Weather Forecast

Advertisements
Track Severe Weather on mobile